KNUQ/NUQ METAR and TAF weather

Enter ICAO airport designator
Station Type Date Time Source
KNUQ METAR 2018/12/11 19:56 UTC NOAA

KNUQ 111956Z 00000KT 10SM CLR 12/08 A3022 RMK AO2 SLP235 T01170078


Station Type Date Time Source
KNUQ Decoded METAR 2018/12/11 19:56 UTC NOAA

MOFFETT FIELD, CA, United States (KNUQ) 37-26N 122-03W 19M
Dec 11, 2018 - 02:56 PM EST / 2018.12.11 1956 UTC
Wind: Calm:0
Visibility: 10 mile(s):0
Sky conditions: clear
Temperature: 53.1 F (11.7 C)
Dew Point: 46.0 F (7.8 C)
Relative Humidity: 76%
Pressure (altimeter): 30.22 in. Hg (1023 hPa)
ob: KNUQ 111956Z 00000KT 10SM CLR 12/08 A3022 RMK AO2 SLP235 T01170078
cycle: 20

Station Type Date Time Source
KNUQ TAF 2018/01/28 15:27 UTC NOAA

TAF COR KNUQ 2815/2915 14012G22KT 9999 SCT020 BKN035 BKN050 BKN120 650509 651406 540009 540909 QNH3017INS
TEMPO 2816/2822 14018G30KT 8000 -SHRA BKN015 OVC030
FM282200 14020G32KT 9999 SCT020 BKN050 BKN120 650509 651406 540009 540909 QNH3009INS
TEMPO 2909/2915 8000 -SHRA BKN015 OVC040 T08/2915Z T12/2922Z COR 1523 FS30085


Example: see airport list